Terminal Aerodrome Forecast
Issued by NWS

Home | Current Version | Previous Version | Text Only | Print | Product List | Glossary On
Versions: 1 2 3 4 5 6 7 8 9 10 11 12 13 14
047
FTUS45 KABQ 081123
TAFSAF
TAF
KSAF 081123Z 0812/0912 16011KT P6SM OVC070
      TEMPO 0812/0816 BKN040
     FM082300 05006KT P6SM SCT050
     FM090800 36007KT P6SM FEW050=

USA.gov is the U.S. government's official web portal to all federal, state and local government web resources and services.